sensor_id;sensor_type;location;lat;lon;timestamp;pressure;altitude;pressure_sealevel;temperature;humidity
9307;BME280;4691;47.612;7.610;2023-05-01T00:01:02;98664.94;;;13.47;100.00
9307;BME280;4691;47.612;7.610;2023-05-01T00:03:30;98661.53;;;13.45;100.00
9307;BME280;4691;47.612;7.610;2023-05-01T00:06:00;98658.13;;;13.43;100.00
9307;BME280;4691;47.612;7.610;2023-05-01T00:08:25;98651.94;;;13.43;100.00
9307;BME280;4691;47.612;7.610;2023-05-01T00:10:50;98642.31;;;13.40;100.00
9307;BME280;4691;47.612;7.610;2023-05-01T00:13:16;98642.31;;;13.40;100.00
9307;BME280;4691;47.612;7.610;2023-05-01T00:15:46;98628.19;;;13.38;100.00
9307;BME280;4691;47.612;7.610;2023-05-01T00:18:11;98619.44;;;13.36;100.00
9307;BME280;4691;47.612;7.610;2023-05-01T00:20:37;98616.75;;;13.36;100.00
9307;BME280;4691;47.612;7.610;2023-05-01T00:23:02;98603.88;;;13.30;100.00
9307;BME280;4691;47.612;7.610;2023-05-01T00:25:27;98588.31;;;13.24;100.00
9307;BME280;4691;47.612;7.610;2023-05-01T00:27:53;98575.72;;;13.15;100.00
9307;BME280;4691;47.612;7.610;2023-05-01T00:30:18;98565.44;;;13.00;100.00
9307;BME280;4691;47.612;7.610;2023-05-01T00:32:44;98558.38;;;12.90;100.00
9307;BME280;4691;47.612;7.610;2023-05-01T00:35:09;98557.66;;;12.78;100.00
9307;BME280;4691;47.612;7.610;2023-05-01T00:37:34;98545.34;;;12.66;100.00
9307;BME280;4691;47.612;7.610;2023-05-01T00:40:00;98528.38;;;12.55;100.00
9307;BME280;4691;47.612;7.610;2023-05-01T00:42:25;98516.25;;;12.51;100.00
9307;BME280;4691;47.612;7.610;2023-05-01T00:44:50;98499.31;;;12.41;100.00
9307;BME280;4691;47.612;7.610;2023-05-01T00:47:16;98480.13;;;12.36;100.00
9307;BME280;4691;47.612;7.610;2023-05-01T00:49:42;98458.34;;;12.29;100.00
9307;BME280;4691;47.612;7.610;2023-05-01T00:52:08;98441.00;;;12.24;100.00
9307;BME280;4691;47.612;7.610;2023-05-01T00:54:35;98420.81;;;12.19;100.00
9307;BME280;4691;47.612;7.610;2023-05-01T00:57:01;98390.19;;;12.12;100.00
9307;BME280;4691;47.612;7.610;2023-05-01T00:59:26;98328.28;;;12.15;100.00
9307;BME280;4691;47.612;7.610;2023-05-01T01:01:51;98307.69;;;12.06;100.00
9307;BME280;4691;47.612;7.610;2023-05-01T01:04:17;98290.19;;;12.02;100.00
9307;BME280;4691;47.612;7.610;2023-05-01T01:07:01;98248.31;;;12.01;100.00
9307;BME280;4691;47.612;7.610;2023-05-01T01:15:34;98168.94;;;12.00;100.00
9307;BME280;4691;47.612;7.610;2023-05-01T01:18:15;98141.28;;;11.99;100.00
9307;BME280;4691;47.612;7.610;2023-05-01T01:34:24;98082.91;;;12.03;100.00
9307;BME280;4691;47.612;7.610;2023-05-01T01:37:09;98075.00;;;12.02;100.00
9307;BME280;4691;47.612;7.610;2023-05-01T01:40:14;98060.31;;;12.06;100.00
9307;BME280;4691;47.612;7.610;2023-05-01T01:42:45;98056.09;;;12.03;100.00
9307;BME280;4691;47.612;7.610;2023-05-01T01:45:38;98020.56;;;12.01;100.00
9307;BME280;4691;47.612;7.610;2023-05-01T01:48:13;98022.25;;;12.02;100.00
9307;BME280;4691;47.612;7.610;2023-05-01T01:50:40;98010.56;;;12.03;100.00
9307;BME280;4691;47.612;7.610;2023-05-01T01:53:08;98000.53;;;12.05;100.00
9307;BME280;4691;47.612;7.610;2023-05-01T01:55:35;97978.78;;;12.08;100.00
9307;BME280;4691;47.612;7.610;2023-05-01T01:58:02;97974.00;;;12.02;100.00
9307;BME280;4691;47.612;7.610;2023-05-01T02:00:29;97972.03;;;12.04;100.00
9307;BME280;4691;47.612;7.610;2023-05-01T02:02:57;97976.69;;;12.02;100.00
9307;BME280;4691;47.612;7.610;2023-05-01T02:05:25;97974.88;;;12.03;100.00
9307;BME280;4691;47.612;7.610;2023-05-01T02:07:51;97977.38;;;12.04;100.00
9307;BME280;4691;47.612;7.610;2023-05-01T02:10:17;97971.50;;;12.01;100.00
9307;BME280;4691;47.612;7.610;2023-05-01T02:12:45;97976.03;;;12.00;100.00
9307;BME280;4691;47.612;7.610;2023-05-01T02:15:14;97974.63;;;11.96;100.00
9307;BME280;4691;47.612;7.610;2023-05-01T02:19:32;97820.63;;;12.00;100.00
9307;BME280;4691;47.612;7.610;2023-05-01T02:21:59;97844.03;;;11.98;100.00
9307;BME280;4691;47.612;7.610;2023-05-01T02:24:27;97870.66;;;11.99;100.00
9307;BME280;4691;47.612;7.610;2023-05-01T02:26:56;97886.28;;;12.04;100.00
9307;BME280;4691;47.612;7.610;2023-05-01T02:29:24;97898.72;;;12.05;100.00
9307;BME280;4691;47.612;7.610;2023-05-01T02:31:50;97916.16;;;12.09;100.00
9307;BME280;4691;47.612;7.610;2023-05-01T02:34:16;97942.25;;;12.07;100.00
9307;BME280;4691;47.612;7.610;2023-05-01T02:36:41;97940.56;;;12.06;100.00
9307;BME280;4691;47.612;7.610;2023-05-01T02:39:07;97961.31;;;12.04;100.00
9307;BME280;4691;47.612;7.610;2023-05-01T02:41:36;97976.41;;;12.05;100.00
9307;BME280;4691;47.612;7.610;2023-05-01T02:44:04;97997.47;;;12.00;100.00
9307;BME280;4691;47.612;7.610;2023-05-01T02:46:34;98029.31;;;12.03;100.00
9307;BME280;4691;47.612;7.610;2023-05-01T02:49:01;98066.81;;;12.03;100.00
9307;BME280;4691;47.612;7.610;2023-05-01T02:51:28;98133.81;;;12.03;100.00
9307;BME280;4691;47.612;7.610;2023-05-01T02:53:54;98175.13;;;12.01;100.00
9307;BME280;4691;47.612;7.610;2023-05-01T02:59:42;98195.56;;;11.92;100.00
9307;BME280;4691;47.612;7.610;2023-05-01T03:02:08;98212.94;;;11.97;100.00
9307;BME280;4691;47.612;7.610;2023-05-01T03:04:33;98222.78;;;11.97;100.00
9307;BME280;4691;47.612;7.610;2023-05-01T03:06:59;98243.53;;;11.95;100.00
9307;BME280;4691;47.612;7.610;2023-05-01T03:09:24;98246.47;;;11.92;100.00
9307;BME280;4691;47.612;7.610;2023-05-01T03:11:50;98261.16;;;11.88;100.00
9307;BME280;4691;47.612;7.610;2023-05-01T03:14:15;98265.69;;;11.87;100.00
9307;BME280;4691;47.612;7.610;2023-05-01T03:16:41;98335.03;;;11.90;100.00
9307;BME280;4691;47.612;7.610;2023-05-01T03:19:06;98332.50;;;11.89;100.00
9307;BME280;4691;47.612;7.610;2023-05-01T03:21:32;98335.75;;;11.92;100.00
9307;BME280;4691;47.612;7.610;2023-05-01T03:23:58;98342.94;;;11.92;100.00
9307;BME280;4691;47.612;7.610;2023-05-01T03:26:23;98339.56;;;11.90;100.00
9307;BME280;4691;47.612;7.610;2023-05-01T03:28:49;98340.78;;;11.86;100.00
9307;BME280;4691;47.612;7.610;2023-05-01T03:31:15;98345.44;;;11.84;100.00
9307;BME280;4691;47.612;7.610;2023-05-01T03:33:40;98344.72;;;11.82;100.00
9307;BME280;4691;47.612;7.610;2023-05-01T03:36:06;98351.50;;;11.86;100.00
9307;BME280;4691;47.612;7.610;2023-05-01T03:38:31;98358.56;;;11.87;100.00
9307;BME280;4691;47.612;7.610;2023-05-01T03:40:57;98371.72;;;11.90;100.00
9307;BME280;4691;47.612;7.610;2023-05-01T03:43:26;98390.03;;;11.94;100.00
9307;BME280;4691;47.612;7.610;2023-05-01T03:45:51;98400.75;;;11.94;100.00
9307;BME280;4691;47.612;7.610;2023-05-01T03:48:19;98414.13;;;11.94;100.00
9307;BME280;4691;47.612;7.610;2023-05-01T03:50:45;98450.41;;;11.98;100.00
9307;BME280;4691;47.612;7.610;2023-05-01T03:53:11;98464.78;;;11.97;100.00
9307;BME280;4691;47.612;7.610;2023-05-01T03:55:37;98471.84;;;11.98;100.00
9307;BME280;4691;47.612;7.610;2023-05-01T03:58:02;98477.06;;;12.00;100.00
9307;BME280;4691;47.612;7.610;2023-05-01T04:00:27;98489.59;;;11.99;100.00
9307;BME280;4691;47.612;7.610;2023-05-01T04:02:53;98508.22;;;12.01;100.00
9307;BME280;4691;47.612;7.610;2023-05-01T04:05:21;98500.19;;;12.01;100.00
9307;BME280;4691;47.612;7.610;2023-05-01T04:07:46;98511.03;;;11.99;100.00
9307;BME280;4691;47.612;7.610;2023-05-01T04:10:12;98505.13;;;11.96;100.00
9307;BME280;4691;47.612;7.610;2023-05-01T04:12:37;98495.06;;;11.88;100.00
9307;BME280;4691;47.612;7.610;2023-05-01T04:15:03;98487.16;;;11.87;100.00
9307;BME280;4691;47.612;7.610;2023-05-01T04:17:28;98486.19;;;11.88;100.00
9307;BME280;4691;47.612;7.610;2023-05-01T04:19:56;98478.88;;;11.90;100.00
9307;BME280;4691;47.612;7.610;2023-05-01T04:22:22;98481.41;;;11.91;100.00
9307;BME280;4691;47.612;7.610;2023-05-01T04:24:47;98471.97;;;11.87;100.00
9307;BME280;4691;47.612;7.610;2023-05-01T04:27:13;98477.16;;;11.89;100.00
9307;BME280;4691;47.612;7.610;2023-05-01T04:29:38;98479.56;;;11.92;100.00
9307;BME280;4691;47.612;7.610;2023-05-01T04:32:03;98488.72;;;11.89;100.00
9307;BME280;4691;47.612;7.610;2023-05-01T04:34:29;98477.31;;;11.87;100.00
9307;BME280;4691;47.612;7.610;2023-05-01T04:36:55;98468.53;;;11.85;100.00
9307;BME280;4691;47.612;7.610;2023-05-01T04:39:21;98443.00;;;11.81;100.00
9307;BME280;4691;47.612;7.610;2023-05-01T04:41:47;98417.31;;;11.78;100.00
9307;BME280;4691;47.612;7.610;2023-05-01T04:44:12;98391.53;;;11.77;100.00
9307;BME280;4691;47.612;7.610;2023-05-01T04:46:37;98360.38;;;11.76;100.00
9307;BME280;4691;47.612;7.610;2023-05-01T04:49:03;98336.97;;;11.78;100.00
9307;BME280;4691;47.612;7.610;2023-05-01T04:51:28;98312.72;;;11.80;100.00
9307;BME280;4691;47.612;7.610;2023-05-01T04:53:53;98297.78;;;11.77;100.00
9307;BME280;4691;47.612;7.610;2023-05-01T04:56:19;98299.75;;;11.75;100.00
9307;BME280;4691;47.612;7.610;2023-05-01T04:58:45;98299.47;;;11.78;100.00
9307;BME280;4691;47.612;7.610;2023-05-01T05:01:10;98328.78;;;11.80;100.00
9307;BME280;4691;47.612;7.610;2023-05-01T05:03:36;98343.75;;;11.83;100.00
9307;BME280;4691;47.612;7.610;2023-05-01T05:06:01;98362.22;;;11.86;100.00
9307;BME280;4691;47.612;7.610;2023-05-01T05:08:27;98384.41;;;11.88;100.00
9307;BME280;4691;47.612;7.610;2023-05-01T05:10:59;98404.53;;;11.92;100.00
9307;BME280;4691;47.612;7.610;2023-05-01T05:13:24;98424.16;;;11.92;100.00
9307;BME280;4691;47.612;7.610;2023-05-01T05:15:50;98449.84;;;11.95;100.00
9307;BME280;4691;47.612;7.610;2023-05-01T05:18:15;98455.19;;;11.95;100.00
9307;BME280;4691;47.612;7.610;2023-05-01T05:20:41;98468.44;;;11.96;100.00
9307;BME280;4691;47.612;7.610;2023-05-01T05:23:08;98470.28;;;11.96;100.00
9307;BME280;4691;47.612;7.610;2023-05-01T05:25:34;98478.03;;;11.99;100.00
9307;BME280;4691;47.612;7.610;2023-05-01T05:28:00;98472.69;;;11.99;100.00
9307;BME280;4691;47.612;7.610;2023-05-01T05:30:26;98469.03;;;12.00;100.00
9307;BME280;4691;47.612;7.610;2023-05-01T05:32:51;98460.69;;;11.93;100.00
9307;BME280;4691;47.612;7.610;2023-05-01T05:35:20;98437.22;;;11.86;100.00
9307;BME280;4691;47.612;7.610;2023-05-01T05:37:45;98413.41;;;11.83;100.00
9307;BME280;4691;47.612;7.610;2023-05-01T05:40:11;98408.75;;;11.85;100.00
9307;BME280;4691;47.612;7.610;2023-05-01T05:42:36;98393.94;;;11.81;100.00
9307;BME280;4691;47.612;7.610;2023-05-01T05:45:02;98380.53;;;11.81;100.00
9307;BME280;4691;47.612;7.610;2023-05-01T05:47:27;98398.75;;;11.87;100.00
9307;BME280;4691;47.612;7.610;2023-05-01T05:49:53;98400.19;;;11.91;100.00
9307;BME280;4691;47.612;7.610;2023-05-01T05:52:19;98421.78;;;11.99;100.00
9307;BME280;4691;47.612;7.610;2023-05-01T05:54:48;98434.59;;;11.95;100.00
9307;BME280;4691;47.612;7.610;2023-05-01T05:57:13;98445.34;;;12.05;100.00
9307;BME280;4691;47.612;7.610;2023-05-01T05:59:39;98469.91;;;12.10;100.00
9307;BME280;4691;47.612;7.610;2023-05-01T06:02:04;98463.84;;;12.08;100.00
9307;BME280;4691;47.612;7.610;2023-05-01T06:04:29;98466.78;;;12.05;100.00
9307;BME280;4691;47.612;7.610;2023-05-01T06:06:55;98484.56;;;12.06;100.00
9307;BME280;4691;47.612;7.610;2023-05-01T06:09:21;98500.91;;;12.03;100.00
9307;BME280;4691;47.612;7.610;2023-05-01T06:11:49;98510.22;;;12.09;100.00
9307;BME280;4691;47.612;7.610;2023-05-01T06:14:15;98531.28;;;12.13;100.00
9307;BME280;4691;47.612;7.610;2023-05-01T06:16:43;98543.56;;;12.16;100.00
9307;BME280;4691;47.612;7.610;2023-05-01T06:19:08;98558.63;;;12.17;100.00
9307;BME280;4691;47.612;7.610;2023-05-01T06:21:36;98564.16;;;12.15;100.00
9307;BME280;4691;47.612;7.610;2023-05-01T06:24:01;98577.13;;;12.20;100.00
9307;BME280;4691;47.612;7.610;2023-05-01T06:26:29;98583.81;;;12.26;100.00
9307;BME280;4691;47.612;7.610;2023-05-01T06:28:55;98590.13;;;12.25;100.00
9307;BME280;4691;47.612;7.610;2023-05-01T06:31:20;98595.50;;;12.25;100.00
9307;BME280;4691;47.612;7.610;2023-05-01T06:33:46;98600.84;;;12.25;100.00
9307;BME280;4691;47.612;7.610;2023-05-01T06:36:12;98607.47;;;12.20;100.00
9307;BME280;4691;47.612;7.610;2023-05-01T06:38:37;98604.66;;;12.22;100.00
9307;BME280;4691;47.612;7.610;2023-05-01T06:41:05;98608.88;;;12.25;100.00
9307;BME280;4691;47.612;7.610;2023-05-01T06:43:34;98604.97;;;12.29;100.00
9307;BME280;4691;47.612;7.610;2023-05-01T06:45:59;98611.88;;;12.31;100.00
9307;BME280;4691;47.612;7.610;2023-05-01T06:48:25;98619.22;;;12.29;100.00
9307;BME280;4691;47.612;7.610;2023-05-01T06:50:50;98630.66;;;12.31;100.00
9307;BME280;4691;47.612;7.610;2023-05-01T06:53:15;98621.78;;;12.31;100.00
9307;BME280;4691;47.612;7.610;2023-05-01T06:55:41;98617.97;;;12.33;100.00
9307;BME280;4691;47.612;7.610;2023-05-01T06:58:06;98628.03;;;12.41;100.00
9307;BME280;4691;47.612;7.610;2023-05-01T07:00:35;98619.28;;;12.49;100.00
9307;BME280;4691;47.612;7.610;2023-05-01T07:03:01;98622.41;;;12.54;100.00
9307;BME280;4691;47.612;7.610;2023-05-01T07:05:27;98631.47;;;12.62;100.00
9307;BME280;4691;47.612;7.610;2023-05-01T07:07:52;98620.31;;;12.67;100.00
9307;BME280;4691;47.612;7.610;2023-05-01T07:10:18;98612.56;;;12.74;100.00
9307;BME280;4691;47.612;7.610;2023-05-01T07:12:43;98614.53;;;12.81;100.00
9307;BME280;4691;47.612;7.610;2023-05-01T07:15:09;98612.59;;;12.83;100.00
9307;BME280;4691;47.612;7.610;2023-05-01T07:17:34;98603.97;;;12.80;100.00
9307;BME280;4691;47.612;7.610;2023-05-01T07:20:00;98594.91;;;12.81;100.00
9307;BME280;4691;47.612;7.610;2023-05-01T07:22:26;98572.75;;;12.79;100.00
9307;BME280;4691;47.612;7.610;2023-05-01T07:24:53;98548.59;;;12.79;100.00
9307;BME280;4691;47.612;7.610;2023-05-01T07:27:18;98524.19;;;12.82;100.00
9307;BME280;4691;47.612;7.610;2023-05-01T07:29:44;98499.34;;;12.80;100.00
9307;BME280;4691;47.612;7.610;2023-05-01T07:32:09;98458.94;;;12.81;100.00
9307;BME280;4691;47.612;7.610;2023-05-01T07:34:35;98427.31;;;12.85;100.00
9307;BME280;4691;47.612;7.610;2023-05-01T07:37:00;98362.91;;;12.85;100.00
9307;BME280;4691;47.612;7.610;2023-05-01T07:39:28;98331.13;;;12.90;100.00
9307;BME280;4691;47.612;7.610;2023-05-01T07:41:56;98304.09;;;13.01;100.00
9307;BME280;4691;47.612;7.610;2023-05-01T07:44:21;98252.00;;;12.94;100.00
9307;BME280;4691;47.612;7.610;2023-05-01T07:46:50;98212.84;;;13.01;100.00
9307;BME280;4691;47.612;7.610;2023-05-01T07:49:15;98191.31;;;13.11;100.00
9307;BME280;4691;47.612;7.610;2023-05-01T07:51:40;98160.19;;;13.18;100.00
9307;BME280;4691;47.612;7.610;2023-05-01T07:54:06;98148.00;;;13.24;100.00
9307;BME280;4691;47.612;7.610;2023-05-01T07:56:32;98109.03;;;13.20;100.00
9307;BME280;4691;47.612;7.610;2023-05-01T07:58:58;98076.50;;;13.23;100.00
9307;BME280;4691;47.612;7.610;2023-05-01T08:01:23;98054.13;;;13.32;100.00
9307;BME280;4691;47.612;7.610;2023-05-01T08:03:49;98033.50;;;13.33;100.00
9307;BME280;4691;47.612;7.610;2023-05-01T08:06:14;98027.81;;;13.36;100.00
9307;BME280;4691;47.612;7.610;2023-05-01T08:08:40;98021.59;;;13.35;100.00
9307;BME280;4691;47.612;7.610;2023-05-01T08:11:05;98012.25;;;13.39;100.00
9307;BME280;4691;47.612;7.610;2023-05-01T08:13:30;98015.63;;;13.41;100.00
9307;BME280;4691;47.612;7.610;2023-05-01T08:16:00;98015.69;;;13.49;100.00
9307;BME280;4691;47.612;7.610;2023-05-01T08:18:25;98027.47;;;13.57;100.00
9307;BME280;4691;47.612;7.610;2023-05-01T08:20:50;98027.53;;;13.65;100.00
9307;BME280;4691;47.612;7.610;2023-05-01T08:23:16;98015.81;;;13.74;100.00
9307;BME280;4691;47.612;7.610;2023-05-01T08:25:42;98017.25;;;13.94;100.00
9307;BME280;4691;47.612;7.610;2023-05-01T08:28:08;98015.16;;;14.06;100.00
9307;BME280;4691;47.612;7.610;2023-05-01T08:30:36;98000.50;;;14.01;100.00
9307;BME280;4691;47.612;7.610;2023-05-01T08:33:01;97991.72;;;13.90;100.00
9307;BME280;4691;47.612;7.610;2023-05-01T08:35:26;97990.13;;;14.06;100.00
9307;BME280;4691;47.612;7.610;2023-05-01T08:37:52;98005.50;;;14.30;100.00
9307;BME280;4691;47.612;7.610;2023-05-01T08:40:17;98002.00;;;14.46;100.00
9307;BME280;4691;47.612;7.610;2023-05-01T08:42:43;97994.59;;;14.40;100.00
9307;BME280;4691;47.612;7.610;2023-05-01T08:45:09;98004.66;;;14.29;100.00
9307;BME280;4691;47.612;7.610;2023-05-01T08:47:37;98029.41;;;14.07;100.00
9307;BME280;4691;47.612;7.610;2023-05-01T08:50:03;98046.78;;;13.86;100.00
9307;BME280;4691;47.612;7.610;2023-05-01T08:52:34;98039.75;;;13.85;100.00
9307;BME280;4691;47.612;7.610;2023-05-01T08:55:12;98043.94;;;13.88;100.00
9307;BME280;4691;47.612;7.610;2023-05-01T08:57:38;98048.50;;;13.87;100.00
9307;BME280;4691;47.612;7.610;2023-05-01T09:00:10;98050.00;;;13.90;100.00
9307;BME280;4691;47.612;7.610;2023-05-01T09:02:40;98050.97;;;14.15;100.00
9307;BME280;4691;47.612;7.610;2023-05-01T09:05:09;98048.53;;;14.38;100.00
9307;BME280;4691;47.612;7.610;2023-05-01T09:07:35;98071.53;;;14.24;100.00
9307;BME280;4691;47.612;7.610;2023-05-01T09:10:01;98089.41;;;14.42;100.00
9307;BME280;4691;47.612;7.610;2023-05-01T09:12:28;98097.97;;;14.79;100.00
9307;BME280;4691;47.612;7.610;2023-05-01T09:14:55;98123.81;;;15.15;100.00
9307;BME280;4691;47.612;7.610;2023-05-01T09:17:22;98193.00;;;15.31;100.00
9307;BME280;4691;47.612;7.610;2023-05-01T09:19:48;98224.72;;;15.53;100.00
9307;BME280;4691;47.612;7.610;2023-05-01T09:22:17;98268.91;;;15.77;100.00
9307;BME280;4691;47.612;7.610;2023-05-01T09:24:43;98322.19;;;15.91;100.00
9307;BME280;4691;47.612;7.610;2023-05-01T09:27:11;98361.44;;;15.85;100.00
9307;BME280;4691;47.612;7.610;2023-05-01T09:29:39;98393.88;;;16.18;100.00
9307;BME280;4691;47.612;7.610;2023-05-01T09:32:14;98428.75;;;16.11;100.00
9307;BME280;4691;47.612;7.610;2023-05-01T09:34:40;98472.16;;;15.92;100.00
9307;BME280;4691;47.612;7.610;2023-05-01T09:37:08;98482.59;;;15.87;100.00
9307;BME280;4691;47.612;7.610;2023-05-01T09:39:34;98471.66;;;16.39;100.00
9307;BME280;4691;47.612;7.610;2023-05-01T09:41:59;98509.78;;;16.44;100.00
9307;BME280;4691;47.612;7.610;2023-05-01T09:44:24;98534.44;;;16.49;100.00
9307;BME280;4691;47.612;7.610;2023-05-01T09:46:53;98539.53;;;16.77;100.00
9307;BME280;4691;47.612;7.610;2023-05-01T09:49:18;98551.50;;;16.66;100.00
9307;BME280;4691;47.612;7.610;2023-05-01T09:51:44;98554.44;;;16.81;100.00
9307;BME280;4691;47.612;7.610;2023-05-01T09:54:17;98547.59;;;16.61;100.00
9307;BME280;4691;47.612;7.610;2023-05-01T09:56:47;98560.38;;;17.01;100.00
9307;BME280;4691;47.612;7.610;2023-05-01T09:59:17;98579.44;;;16.83;100.00
9307;BME280;4691;47.612;7.610;2023-05-01T10:01:45;98587.09;;;17.53;100.00
9307;BME280;4691;47.612;7.610;2023-05-01T10:04:13;98591.94;;;18.07;100.00
9307;BME280;4691;47.612;7.610;2023-05-01T10:06:41;98605.75;;;18.20;100.00
9307;BME280;4691;47.612;7.610;2023-05-01T10:09:07;98621.34;;;18.10;100.00
9307;BME280;4691;47.612;7.610;2023-05-01T10:11:55;98633.13;;;18.34;100.00
9307;BME280;4691;47.612;7.610;2023-05-01T10:14:26;98637.28;;;17.97;100.00
9307;BME280;4691;47.612;7.610;2023-05-01T10:16:58;98619.38;;;17.79;100.00
9307;BME280;4691;47.612;7.610;2023-05-01T10:19:32;98619.34;;;17.63;100.00
9307;BME280;4691;47.612;7.610;2023-05-01T10:22:00;98585.22;;;17.62;100.00
9307;BME280;4691;47.612;7.610;2023-05-01T10:24:38;98595.84;;;17.39;100.00
9307;BME280;4691;47.612;7.610;2023-05-01T10:27:44;98578.66;;;17.40;100.00
9307;BME280;4691;47.612;7.610;2023-05-01T10:30:13;98588.59;;;17.31;100.00
9307;BME280;4691;47.612;7.610;2023-05-01T10:32:41;98577.25;;;17.77;100.00
9307;BME280;4691;47.612;7.610;2023-05-01T10:35:22;98594.25;;;18.18;100.00
9307;BME280;4691;47.612;7.610;2023-05-01T10:38:21;98597.56;;;18.45;100.00
9307;BME280;4691;47.612;7.610;2023-05-01T10:41:07;98616.19;;;20.17;100.00
9307;BME280;4691;47.612;7.610;2023-05-01T10:43:36;98631.00;;;20.44;100.00
9307;BME280;4691;47.612;7.610;2023-05-01T10:48:54;98648.69;;;19.65;100.00
9307;BME280;4691;47.612;7.610;2023-05-01T10:51:22;98651.66;;;20.16;100.00
9307;BME280;4691;47.612;7.610;2023-05-01T10:57:05;98648.25;;;20.96;100.00
9307;BME280;4691;47.612;7.610;2023-05-01T11:02:29;98664.00;;;20.86;100.00
9307;BME280;4691;47.612;7.610;2023-05-01T11:04:58;98659.16;;;21.03;100.00
9307;BME280;4691;47.612;7.610;2023-05-01T11:10:24;98656.28;;;21.41;100.00
9307;BME280;4691;47.612;7.610;2023-05-01T11:12:51;98656.03;;;21.79;100.00
9307;BME280;4691;47.612;7.610;2023-05-01T11:15:42;98655.47;;;21.62;100.00
9307;BME280;4691;47.612;7.610;2023-05-01T11:18:13;98660.53;;;21.93;100.00
9307;BME280;4691;47.612;7.610;2023-05-01T11:20:45;98657.13;;;22.34;100.00
9307;BME280;4691;47.612;7.610;2023-05-01T11:23:17;98656.16;;;21.70;100.00
9307;BME280;4691;47.612;7.610;2023-05-01T11:25:46;98657.53;;;21.38;100.00
9307;BME280;4691;47.612;7.610;2023-05-01T11:28:18;98656.97;;;21.28;100.00
9307;BME280;4691;47.612;7.610;2023-05-01T11:30:44;98659.03;;;20.60;100.00
9307;BME280;4691;47.612;7.610;2023-05-01T11:33:10;98662.38;;;20.32;100.00
9307;BME280;4691;47.612;7.610;2023-05-01T11:35:38;98657.78;;;20.48;100.00
9307;BME280;4691;47.612;7.610;2023-05-01T11:38:04;98648.31;;;21.24;100.00
9307;BME280;4691;47.612;7.610;2023-05-01T11:40:33;98646.06;;;21.64;100.00
9307;BME280;4691;47.612;7.610;2023-05-01T11:43:09;98650.47;;;21.44;100.00
9307;BME280;4691;47.612;7.610;2023-05-01T11:45:59;98651.06;;;22.10;100.00
9307;BME280;4691;47.612;7.610;2023-05-01T11:48:31;98634.28;;;22.70;100.00
9307;BME280;4691;47.612;7.610;2023-05-01T11:51:12;98646.09;;;23.38;100.00
9307;BME280;4691;47.612;7.610;2023-05-01T11:56:41;98638.63;;;22.01;100.00
9307;BME280;4691;47.612;7.610;2023-05-01T11:59:11;98633.19;;;22.23;100.00
9307;BME280;4691;47.612;7.610;2023-05-01T12:01:39;98636.72;;;21.52;100.00
9307;BME280;4691;47.612;7.610;2023-05-01T12:04:27;98640.69;;;21.13;100.00
9307;BME280;4691;47.612;7.610;2023-05-01T12:10:08;98640.13;;;21.18;100.00
9307;BME280;4691;47.612;7.610;2023-05-01T12:13:00;98637.97;;;21.49;100.00
9307;BME280;4691;47.612;7.610;2023-05-01T12:15:37;98641.44;;;21.65;100.00
9307;BME280;4691;47.612;7.610;2023-05-01T12:18:04;98644.22;;;21.93;100.00
9307;BME280;4691;47.612;7.610;2023-05-01T12:20:41;98644.50;;;21.77;100.00
9307;BME280;4691;47.612;7.610;2023-05-01T12:23:08;98651.22;;;21.81;100.00
9307;BME280;4691;47.612;7.610;2023-05-01T12:25:35;98633.31;;;21.93;100.00
9307;BME280;4691;47.612;7.610;2023-05-01T12:28:24;98643.03;;;22.58;100.00
9307;BME280;4691;47.612;7.610;2023-05-01T12:33:58;98634.38;;;23.51;100.00
9307;BME280;4691;47.612;7.610;2023-05-01T12:36:28;98629.94;;;23.30;100.00
9307;BME280;4691;47.612;7.610;2023-05-01T12:39:14;98629.88;;;22.34;100.00
9307;BME280;4691;47.612;7.610;2023-05-01T12:41:44;98652.09;;;21.38;100.00
9307;BME280;4691;47.612;7.610;2023-05-01T12:47:01;98652.94;;;21.24;100.00
9307;BME280;4691;47.612;7.610;2023-05-01T12:49:30;98647.94;;;21.64;100.00
9307;BME280;4691;47.612;7.610;2023-05-01T12:52:06;98651.91;;;20.88;100.00
9307;BME280;4691;47.612;7.610;2023-05-01T12:54:37;98663.22;;;20.48;100.00
9307;BME280;4691;47.612;7.610;2023-05-01T12:57:15;98665.56;;;19.98;100.00
9307;BME280;4691;47.612;7.610;2023-05-01T12:59:44;98671.88;;;19.75;100.00
9307;BME280;4691;47.612;7.610;2023-05-01T13:02:14;98657.88;;;19.64;100.00
9307;BME280;4691;47.612;7.610;2023-05-01T13:04:42;98661.81;;;19.84;100.00
9307;BME280;4691;47.612;7.610;2023-05-01T13:07:11;98656.09;;;19.79;100.00
9307;BME280;4691;47.612;7.610;2023-05-01T13:10:02;98652.47;;;19.87;100.00
9307;BME280;4691;47.612;7.610;2023-05-01T13:12:30;98648.84;;;19.94;100.00
9307;BME280;4691;47.612;7.610;2023-05-01T13:14:58;98659.31;;;19.97;100.00
9307;BME280;4691;47.612;7.610;2023-05-01T13:17:39;98653.41;;;19.48;100.00
9307;BME280;4691;47.612;7.610;2023-05-01T13:20:24;98659.50;;;19.73;100.00
9307;BME280;4691;47.612;7.610;2023-05-01T13:22:53;98652.81;;;19.61;100.00
9307;BME280;4691;47.612;7.610;2023-05-01T13:25:18;98643.72;;;19.53;100.00
9307;BME280;4691;47.612;7.610;2023-05-01T13:27:49;98652.13;;;19.67;100.00
9307;BME280;4691;47.612;7.610;2023-05-01T13:30:32;98643.16;;;20.19;100.00
9307;BME280;4691;47.612;7.610;2023-05-01T13:33:08;98629.72;;;21.64;100.00
9307;BME280;4691;47.612;7.610;2023-05-01T13:35:37;98613.25;;;22.57;100.00
9307;BME280;4691;47.612;7.610;2023-05-01T13:38:10;98631.97;;;22.32;100.00
9307;BME280;4691;47.612;7.610;2023-05-01T13:40:39;98619.97;;;21.98;100.00
9307;BME280;4691;47.612;7.610;2023-05-01T13:43:12;98625.25;;;20.99;100.00
9307;BME280;4691;47.612;7.610;2023-05-01T13:45:50;98638.63;;;20.64;100.00
9307;BME280;4691;47.612;7.610;2023-05-01T13:48:22;98637.00;;;20.25;100.00
9307;BME280;4691;47.612;7.610;2023-05-01T13:50:48;98621.56;;;19.88;100.00
9307;BME280;4691;47.612;7.610;2023-05-01T13:53:16;98607.72;;;19.83;100.00
9307;BME280;4691;47.612;7.610;2023-05-01T13:55:45;98639.56;;;19.66;100.00
9307;BME280;4691;47.612;7.610;2023-05-01T14:01:19;98629.44;;;19.83;100.00
9307;BME280;4691;47.612;7.610;2023-05-01T14:03:49;98625.78;;;19.90;100.00
9307;BME280;4691;47.612;7.610;2023-05-01T14:06:19;98624.41;;;19.94;100.00
9307;BME280;4691;47.612;7.610;2023-05-01T14:08:45;98635.34;;;19.86;100.00